Time;durP1;ratioP1;P1;durP2;ratioP2;P2;SDS_P1;SDS_P2;PMS_P1;PMS_P2;Temp;Humidity;BMP_temperature;BMP_pressure;BME280_temperature;BME280_humidity;BME280_pressure;Samples;Min_cycle;Max_cycle;Signal;HPM_P1;HPM_P2
2022/03/13 00:01:50;;;;;;;;;9.20;9.20;;;;;8.06;49.85;99911.59;5118275;28;8838;-64
2022/03/13 00:04:18;;;;;;;;;11.20;10.00;;;;;7.96;50.44;99915.84;5117007;28;8870;-64
2022/03/13 00:06:47;;;;;;;;;9.00;7.40;;;;;7.88;50.50;99920.84;5117905;28;8986;-64
2022/03/13 00:09:15;;;;;;;;;11.20;11.20;;;;;7.81;50.74;99918.69;5117583;28;8832;-64
2022/03/13 00:11:43;;;;;;;;;6.40;6.40;;;;;7.78;50.01;99913.63;5112306;28;8822;-64
2022/03/13 00:14:11;;;;;;;;;7.00;7.00;;;;;7.78;50.09;99908.31;5096981;28;8845;-64
2022/03/13 00:16:39;;;;;;;;;11.00;10.20;;;;;7.75;50.33;99901.44;5097007;28;9488;-64
2022/03/13 00:19:07;;;;;;;;;11.20;9.80;;;;;7.72;50.57;99909.59;5097114;28;8846;-64
2022/03/13 00:21:40;;;;;;;;;6.60;6.60;;;;;7.69;50.25;99907.13;5097065;28;8891;-64
2022/03/13 00:24:08;;;;;;;;;10.40;9.40;;;;;7.64;50.60;99900.47;5096731;28;8923;-64
2022/03/13 00:26:35;;;;;;;;;8.80;8.20;;;;;7.55;50.77;99903.75;5096434;28;8826;-65
2022/03/13 00:29:03;;;;;;;;;7.00;7.00;;;;;7.44;50.77;99906.25;5096759;28;8832;-64
2022/03/13 00:31:31;;;;;;;;;7.40;7.40;;;;;7.31;50.72;99905.41;5096974;28;8818;-65
2022/03/13 00:33:59;;;;;;;;;6.80;6.00;;;;;7.19;51.50;99908.88;5096722;28;8826;-65
2022/03/13 00:36:26;;;;;;;;;7.80;7.40;;;;;7.09;51.26;99905.13;5097034;28;8837;-65
2022/03/13 00:38:54;;;;;;;;;8.60;7.40;;;;;7.01;51.76;99915.38;5096888;28;8848;-65
2022/03/13 00:41:22;;;;;;;;;14.20;10.80;;;;;6.93;51.60;99911.53;5098470;28;8865;-65
2022/03/13 00:43:50;;;;;;;;;12.00;10.80;;;;;6.85;51.48;99916.47;5117135;28;8831;-65
2022/03/13 00:46:18;;;;;;;;;10.80;9.20;;;;;6.77;51.86;99918.78;5115104;28;8827;-65
2022/03/13 00:48:46;;;;;;;;;9.00;9.00;;;;;6.69;52.23;99921.88;5116923;28;8846;-65
2022/03/13 00:51:14;;;;;;;;;9.00;7.40;;;;;6.66;51.95;99921.28;5117219;28;8832;-65
2022/03/13 00:53:41;;;;;;;;;8.20;7.60;;;;;6.64;52.00;99925.78;5117278;28;8820;-65
2022/03/13 00:56:10;;;;;;;;;3.60;3.60;;;;;6.63;51.61;99924.09;5117310;28;8836;-65
2022/03/13 00:58:40;;;;;;;;;0.40;0.40;;;;;6.61;52.03;99920.69;5114926;28;8823;-65
2022/03/13 01:01:08;;;;;;;;;7.40;6.20;;;;;6.61;51.75;99918.06;5096506;28;8853;-65
2022/03/13 01:03:36;;;;;;;;;11.60;9.00;;;;;6.59;51.52;99912.03;5096327;28;8896;-65
2022/03/13 01:06:04;;;;;;;;;11.20;10.40;;;;;6.57;51.80;99913.91;5095880;28;8826;-65
2022/03/13 01:08:31;;;;;;;;;9.80;7.00;;;;;6.57;51.58;99908.59;5096704;28;8864;-66
2022/03/13 01:10:59;;;;;;;;;6.40;6.40;;;;;6.55;51.49;99911.38;5095595;28;8854;-65
2022/03/13 01:13:27;;;;;;;;;10.80;9.80;;;;;6.52;51.51;99911.53;5115421;28;8827;-65
2022/03/13 01:15:55;;;;;;;;;6.00;6.00;;;;;6.49;51.80;99911.75;5116983;28;8971;-65
2022/03/13 01:18:23;;;;;;;;;9.20;9.20;;;;;6.46;52.05;99908.44;5117115;28;8823;-65
2022/03/13 01:20:51;;;;;;;;;10.40;9.60;;;;;6.45;52.34;99912.03;5116026;28;8848;-65
2022/03/13 01:23:18;;;;;;;;;10.80;10.80;;;;;6.42;51.99;99906.94;5115921;28;8835;-65
2022/03/13 01:25:46;;;;;;;;;10.00;9.80;;;;;6.42;52.11;99906.94;5116632;28;9497;-65
2022/03/13 01:28:14;;;;;;;;;9.40;9.40;;;;;6.43;52.09;99905.97;5116256;28;8843;-65
2022/03/13 01:30:42;;;;;;;;;5.60;3.40;;;;;6.42;51.75;99899.88;5116325;28;8824;-65
2022/03/13 01:33:10;;;;;;;;;10.00;9.60;;;;;6.40;52.29;99896.47;5114498;28;8871;-66
2022/03/13 01:35:37;;;;;;;;;18.40;10.80;;;;;6.43;51.52;99895.41;5115326;28;8953;-65
2022/03/13 01:38:05;;;;;;;;;9.80;9.20;;;;;6.41;51.61;99897.31;5116371;28;8842;-65
2022/03/13 01:40:33;;;;;;;;;10.80;9.20;;;;;6.41;52.10;99886.72;5116352;28;8835;-66
2022/03/13 01:43:01;;;;;;;;;10.20;8.00;;;;;6.45;51.82;99882.97;5100254;28;8830;-65
2022/03/13 01:45:28;;;;;;;;;8.20;6.60;;;;;6.49;51.37;99874.72;5095977;28;8844;-65
2022/03/13 01:47:56;;;;;;;;;12.20;10.00;;;;;6.55;51.13;99882.28;5095523;28;8845;-65
2022/03/13 01:50:24;;;;;;;;;9.60;9.00;;;;;6.61;51.84;99871.28;5095647;28;8846;-65
2022/03/13 01:52:51;;;;;;;;;5.20;4.00;;;;;6.64;51.83;99865.81;5095510;28;8836;-64
2022/03/13 01:55:19;;;;;;;;;10.00;9.40;;;;;6.67;51.49;99860.28;5096324;28;8840;-65
2022/03/13 01:57:47;;;;;;;;;9.00;9.00;;;;;6.63;50.90;99865.88;5095388;28;8956;-65
2022/03/13 02:00:15;;;;;;;;;11.00;11.00;;;;;6.56;51.29;99867.22;5095391;28;8830;-65
2022/03/13 02:02:43;;;;;;;;;10.00;9.20;;;;;6.51;51.25;99864.06;5094742;28;8834;-65
2022/03/13 02:05:11;;;;;;;;;7.40;7.40;;;;;6.50;51.41;99864.97;5095643;28;8830;-67
2022/03/13 02:07:40;;;;;;;;;7.60;6.20;;;;;6.46;51.78;99863.50;5095115;28;8834;-67
2022/03/13 02:10:12;;;;;;;;;11.20;10.40;;;;;6.40;51.75;99861.22;5094746;28;8834;-65
2022/03/13 02:12:41;;;;;;;;;3.60;3.60;;;;;6.33;51.89;99852.00;5107196;28;8954;-65
2022/03/13 02:15:09;;;;;;;;;9.00;9.00;;;;;6.25;51.56;99849.84;5115198;28;8911;-65
2022/03/13 02:17:37;;;;;;;;;7.00;7.00;;;;;6.20;51.85;99856.34;5113630;28;8815;-66
2022/03/13 02:20:05;;;;;;;;;7.00;7.00;;;;;6.16;51.90;99850.41;5115740;28;8860;-65
2022/03/13 02:22:32;;;;;;;;;5.20;5.20;;;;;6.13;52.24;99845.34;5115403;28;8986;-65
2022/03/13 02:25:01;;;;;;;;;4.40;4.40;;;;;6.10;51.96;99849.97;5114784;28;9458;-64
2022/03/13 02:27:29;;;;;;;;;9.20;9.00;;;;;6.07;52.14;99839.59;5115359;28;8929;-65
2022/03/13 02:29:57;;;;;;;;;9.20;9.20;;;;;6.02;52.24;99845.16;5115164;28;8836;-65
2022/03/13 02:32:24;;;;;;;;;9.60;8.20;;;;;5.95;52.33;99830.66;5115451;28;9501;-65
2022/03/13 02:34:52;;;;;;;;;7.80;6.60;;;;;5.86;52.63;99838.28;5115167;28;8854;-65
2022/03/13 02:37:20;;;;;;;;;8.20;7.40;;;;;5.81;52.16;99835.06;5114849;28;8834;-65
2022/03/13 02:39:48;;;;;;;;;12.20;11.60;;;;;5.77;51.89;99838.81;5113955;28;8836;-65
2022/03/13 02:42:16;;;;;;;;;7.80;7.80;;;;;5.74;52.30;99837.22;5102165;28;8822;-68
2022/03/13 02:44:43;;;;;;;;;12.60;8.60;;;;;5.69;52.32;99827.88;5093765;28;8848;-66
2022/03/13 02:47:11;;;;;;;;;9.20;9.00;;;;;5.65;52.88;99821.09;5094696;28;9526;-65
2022/03/13 02:49:39;;;;;;;;;6.60;6.20;;;;;5.59;52.50;99827.59;5094802;28;8866;-65
2022/03/13 02:52:12;;;;;;;;;11.60;8.60;;;;;5.57;52.51;99826.00;5093871;28;9538;-65
2022/03/13 02:54:40;;;;;;;;;12.60;12.40;;;;;5.52;52.89;99821.00;5094380;28;8887;-65
2022/03/13 02:57:08;;;;;;;;;7.40;6.60;;;;;5.51;52.52;99826.34;5094676;28;8898;-65
2022/03/13 02:59:36;;;;;;;;;9.00;7.80;;;;;5.50;52.79;99822.03;5094842;28;8830;-66
2022/03/13 03:02:03;;;;;;;;;8.20;7.60;;;;;5.48;52.30;99822.09;5094474;28;8834;-66
2022/03/13 03:04:31;;;;;;;;;10.80;9.80;;;;;5.44;52.80;99823.25;5094672;28;8841;-65
2022/03/13 03:07:01;;;;;;;;;9.80;8.60;;;;;5.42;52.47;99819.88;5094856;28;8842;-65
2022/03/13 03:09:30;;;;;;;;;9.60;9.40;;;;;5.38;52.92;99807.78;5094304;28;8895;-65
2022/03/13 03:11:59;;;;;;;;;13.20;11.80;;;;;5.32;52.47;99815.22;5102096;28;8842;-67
2022/03/13 03:14:26;;;;;;;;;14.20;12.40;;;;;5.26;52.46;99815.59;5115048;28;8835;-65
2022/03/13 03:17:00;;;;;;;;;8.20;7.40;;;;;5.20;52.57;99813.31;5118948;28;8823;-65
2022/03/13 03:19:28;;;;;;;;;14.20;12.40;;;;;5.18;52.37;99820.50;5119268;28;8860;-65
2022/03/13 03:21:55;;;;;;;;;13.00;12.00;;;;;5.15;52.75;99812.72;5119074;28;8900;-65
2022/03/13 03:24:23;;;;;;;;;12.80;10.40;;;;;5.13;52.74;99806.72;5118991;28;8962;-65
2022/03/13 03:26:53;;;;;;;;;10.00;7.40;;;;;5.12;52.84;99807.66;5119026;28;8828;-65
2022/03/13 03:29:20;;;;;;;;;6.20;6.00;;;;;5.11;52.96;99808.59;5118655;28;8855;-65
2022/03/13 03:31:48;;;;;;;;;12.20;9.60;;;;;5.09;52.63;99803.41;5116591;28;8839;-64
2022/03/13 03:34:16;;;;;;;;;11.00;10.40;;;;;5.04;52.91;99809.91;5117360;28;8812;-65
2022/03/13 03:36:44;;;;;;;;;9.40;9.00;;;;;4.97;53.33;99814.69;5118615;28;8855;-65
2022/03/13 03:39:12;;;;;;;;;11.60;11.20;;;;;4.91;52.89;99817.69;5118886;28;8872;-64
2022/03/13 03:41:39;;;;;;;;;12.40;12.00;;;;;4.85;52.86;99815.41;5112468;28;8944;-65
2022/03/13 03:44:07;;;;;;;;;10.60;9.80;;;;;4.79;53.13;99812.28;5098274;28;8845;-64
2022/03/13 03:46:36;;;;;;;;;13.80;11.20;;;;;4.73;53.01;99807.38;5098192;28;8838;-65
2022/03/13 03:49:04;;;;;;;;;10.00;10.00;;;;;4.71;52.93;99812.72;5097424;28;8866;-65
2022/03/13 03:51:31;;;;;;;;;12.40;10.80;;;;;4.70;53.06;99799.63;5097654;28;8849;-65
2022/03/13 03:53:59;;;;;;;;;8.20;7.40;;;;;4.69;52.88;99797.91;5097702;28;8844;-65
2022/03/13 03:56:27;;;;;;;;;12.60;12.60;;;;;4.68;53.14;99798.84;5097451;28;8840;-65
2022/03/13 03:58:55;;;;;;;;;9.80;9.20;;;;;4.70;53.36;99812.78;5097961;28;8845;-65
2022/03/13 04:01:23;;;;;;;;;9.40;9.00;;;;;4.68;52.82;99804.13;5097442;28;8846;-65
2022/03/13 04:03:51;;;;;;;;;13.40;11.80;;;;;4.63;53.00;99807.03;5097473;28;9518;-65
2022/03/13 04:06:19;;;;;;;;;9.60;9.00;;;;;4.58;53.21;99814.34;5097816;28;8856;-65
2022/03/13 04:08:46;;;;;;;;;10.00;9.40;;;;;4.56;53.08;99815.41;5097931;28;8980;-65
2022/03/13 04:11:14;;;;;;;;;11.20;9.60;;;;;4.55;53.77;99803.13;5098830;28;8886;-65
2022/03/13 04:13:42;;;;;;;;;9.20;8.60;;;;;4.55;53.32;99805.78;5117534;28;8832;-65
2022/03/13 04:16:13;;;;;;;;;7.00;7.00;;;;;4.55;53.47;99800.50;5100729;28;8909;-66
2022/03/13 04:18:41;;;;;;;;;6.60;6.00;;;;;4.56;52.88;99800.41;5117554;28;8831;-65
2022/03/13 04:21:08;;;;;;;;;11.00;10.00;;;;;4.64;53.32;99798.19;5117209;28;8840;-65
2022/03/13 04:23:36;;;;;;;;;10.00;7.00;;;;;4.82;52.53;99801.53;5117519;28;9524;-65
2022/03/13 04:26:04;;;;;;;;;9.20;9.20;;;;;4.98;52.42;99794.44;5117133;28;8972;-65
2022/03/13 04:28:32;;;;;;;;;10.00;10.00;;;;;5.14;51.83;99797.84;5117468;28;8845;-65
2022/03/13 04:31:00;;;;;;;;;6.20;5.20;;;;;5.24;51.55;99793.72;5117589;28;8973;-65
2022/03/13 04:33:28;;;;;;;;;6.40;6.40;;;;;5.28;51.52;99787.31;5117287;28;8823;-65
2022/03/13 04:35:57;;;;;;;;;9.60;7.80;;;;;5.33;51.47;99793.16;5115745;28;8847;-66
2022/03/13 04:38:26;;;;;;;;;7.80;6.80;;;;;5.48;51.04;99793.06;5115805;28;8874;-66
2022/03/13 04:40:54;;;;;;;;;9.00;7.00;;;;;5.65;50.67;99792.03;5117323;28;8866;-66
2022/03/13 04:43:22;;;;;;;;;10.20;8.00;;;;;5.91;49.86;99778.09;5097324;28;8854;-65
2022/03/13 04:45:50;;;;;;;;;8.80;8.20;;;;;6.25;48.97;99772.31;5096944;28;8829;-65
2022/03/13 04:48:19;;;;;;;;;7.00;6.20;;;;;6.50;48.41;99769.75;5096261;28;9502;-65
2022/03/13 04:50:46;;;;;;;;;8.60;8.60;;;;;6.74;48.18;99774.28;5096642;28;8856;-65
2022/03/13 04:53:14;;;;;;;;;9.80;9.00;;;;;6.97;47.06;99767.47;5096300;28;9515;-65
2022/03/13 04:55:42;;;;;;;;;9.00;7.00;;;;;7.19;46.10;99763.22;5096315;28;8854;-65
2022/03/13 04:58:15;;;;;;;;;5.80;5.60;;;;;7.35;45.74;99768.34;5096264;28;8972;-66
2022/03/13 05:00:43;;;;;;;;;6.80;6.80;;;;;7.46;45.00;99758.69;5096053;28;8880;-66
2022/03/13 05:03:11;;;;;;;;;7.00;7.00;;;;;7.53;45.39;99753.78;5096709;28;8972;-68
2022/03/13 05:05:40;;;;;;;;;7.80;7.40;;;;;7.57;44.75;99757.94;5096457;28;8830;-65
2022/03/13 05:08:13;;;;;;;;;7.40;6.00;;;;;7.58;44.76;99762.28;5096313;28;8852;-65
2022/03/13 05:10:41;;;;;;;;;9.60;8.60;;;;;7.45;45.23;99762.28;5096658;28;8846;-65
2022/03/13 05:13:08;;;;;;;;;9.00;9.00;;;;;7.20;45.14;99764.09;5113442;28;9607;-66
2022/03/13 05:15:36;;;;;;;;;9.00;8.60;;;;;6.90;46.21;99766.19;5115777;28;8828;-65
2022/03/13 05:18:04;;;;;;;;;6.20;6.20;;;;;6.59;46.74;99764.72;5116725;28;8840;-65
2022/03/13 05:20:34;;;;;;;;;11.20;10.40;;;;;6.34;47.17;99775.22;5116631;28;8848;-66
2022/03/13 05:23:02;;;;;;;;;9.40;7.40;;;;;6.14;47.73;99777.47;5116373;28;8957;-65
2022/03/13 05:25:32;;;;;;;;;8.60;7.40;;;;;5.97;48.24;99785.59;5116496;28;8847;-65
2022/03/13 05:28:00;;;;;;;;;6.60;4.80;;;;;5.82;48.45;99778.66;5116174;28;8916;-65
2022/03/13 05:30:28;;;;;;;;;11.80;11.00;;;;;5.67;48.71;99784.84;5116461;28;8824;-65
2022/03/13 05:32:56;;;;;;;;;4.80;4.00;;;;;5.54;48.58;99784.78;5115533;28;9505;-65
2022/03/13 05:35:23;;;;;;;;;6.40;5.20;;;;;5.44;48.83;99785.44;5115893;28;8824;-66
2022/03/13 05:37:51;;;;;;;;;7.00;6.20;;;;;5.34;49.02;99787.81;5115064;28;8824;-66
2022/03/13 05:40:19;;;;;;;;;8.20;8.20;;;;;5.31;49.23;99792.41;5115961;28;8950;-66
2022/03/13 05:42:47;;;;;;;;;9.60;9.20;;;;;5.26;49.59;99791.84;5100947;28;8840;-65
2022/03/13 05:45:15;;;;;;;;;7.80;5.60;;;;;5.19;49.61;99791.38;5095188;28;8922;-65
2022/03/13 05:47:43;;;;;;;;;3.80;3.80;;;;;5.13;49.31;99786.47;5095621;28;8830;-65
2022/03/13 05:50:11;;;;;;;;;7.40;7.00;;;;;5.08;48.99;99792.97;5098146;28;8849;-65
2022/03/13 05:52:39;;;;;;;;;11.60;10.80;;;;;5.01;49.45;99788.97;5095035;28;8826;-65
2022/03/13 05:55:06;;;;;;;;;5.20;3.60;;;;;4.97;49.55;99795.38;5095420;28;8842;-66
2022/03/13 05:57:35;;;;;;;;;6.40;6.20;;;;;4.92;49.11;99797.41;5094332;28;8821;-65
2022/03/13 06:00:02;;;;;;;;;8.20;7.80;;;;;4.88;49.49;99795.91;5094613;28;8837;-65
2022/03/13 06:02:30;;;;;;;;;4.80;4.00;;;;;4.87;49.95;99804.78;5094701;28;8834;-70
2022/03/13 06:04:58;;;;;;;;;8.20;7.40;;;;;4.85;49.94;99801.34;5094480;28;8881;-65
2022/03/13 06:07:26;;;;;;;;;6.80;6.80;;;;;4.83;49.28;99811.16;5094072;28;8964;-65
2022/03/13 06:09:55;;;;;;;;;4.00;4.00;;;;;4.86;49.33;99801.28;5094851;28;8912;-67
2022/03/13 06:12:23;;;;;;;;;9.20;7.80;;;;;4.87;49.24;99796.88;5095143;28;8872;-65
2022/03/13 06:14:51;;;;;;;;;8.20;7.00;;;;;4.86;49.17;99809.19;5094537;28;8834;-65
2022/03/13 06:17:20;;;;;;;;;2.20;1.40;;;;;4.90;49.72;99801.94;5094693;28;8968;-65
2022/03/13 06:19:48;;;;;;;;;4.80;4.80;;;;;4.96;48.97;99799.81;5102881;28;8852;-65
2022/03/13 06:22:17;;;;;;;;;6.40;6.20;;;;;5.03;49.03;99795.84;5115010;28;8847;-65
2022/03/13 06:24:45;;;;;;;;;6.80;5.20;;;;;5.13;48.92;99801.44;5115171;28;8848;-66
2022/03/13 06:27:13;;;;;;;;;7.00;6.40;;;;;5.21;48.71;99799.19;5114649;28;8970;-65
2022/03/13 06:29:41;;;;;;;;;7.00;7.00;;;;;5.30;48.84;99793.34;5115279;28;8812;-65
2022/03/13 06:32:09;;;;;;;;;6.80;6.80;;;;;5.41;48.74;99806.75;5114829;28;9524;-65
2022/03/13 06:34:37;;;;;;;;;7.40;6.40;;;;;5.58;48.13;99802.13;5114235;28;9624;-69
2022/03/13 06:37:05;;;;;;;;;9.40;8.20;;;;;5.98;47.56;99793.44;5114238;28;8966;-66
2022/03/13 06:39:33;;;;;;;;;7.40;7.40;;;;;6.24;46.81;99789.13;5115058;28;8966;-65
2022/03/13 06:42:00;;;;;;;;;7.00;6.00;;;;;6.32;46.85;99789.50;5114943;28;8928;-66
2022/03/13 06:44:28;;;;;;;;;7.20;6.80;;;;;6.37;46.94;99775.00;5114898;28;8850;-65
2022/03/13 06:46:56;;;;;;;;;9.60;9.20;;;;;6.43;46.96;99779.03;5115263;28;8844;-67
2022/03/13 06:49:24;;;;;;;;;5.60;4.80;;;;;6.49;46.97;99778.66;5109979;28;8834;-65
2022/03/13 06:51:51;;;;;;;;;7.00;7.00;;;;;6.57;46.82;99777.22;5097211;28;9011;-65
2022/03/13 06:54:19;;;;;;;;;6.60;4.80;;;;;6.69;46.90;99784.31;5097348;28;8975;-65
2022/03/13 06:56:50;;;;;;;;;6.40;6.00;;;;;6.79;46.68;99796.00;5095566;28;8992;-65
2022/03/13 06:59:17;;;;;;;;;9.80;9.00;;;;;6.87;45.94;99793.69;5096212;28;8926;-66
2022/03/13 07:01:45;;;;;;;;;6.00;6.00;;;;;6.90;46.13;99790.81;5096691;28;9532;-65
2022/03/13 07:04:14;;;;;;;;;9.80;9.80;;;;;6.95;45.81;99794.03;5097617;28;8850;-65
2022/03/13 07:06:43;;;;;;;;;11.20;10.40;;;;;7.01;45.63;99790.97;5097180;28;9503;-65
2022/03/13 07:09:10;;;;;;;;;5.60;4.00;;;;;7.07;45.97;99793.22;5097051;28;8829;-65
2022/03/13 07:11:39;;;;;;;;;11.20;9.20;;;;;7.12;46.13;99787.59;5097583;28;8883;-65
2022/03/13 07:14:07;;;;;;;;;10.40;9.40;;;;;7.18;45.59;99779.22;5098693;28;8838;-66
2022/03/13 07:16:36;;;;;;;;;6.00;6.00;;;;;7.26;45.57;99790.13;5098366;28;8833;-65
2022/03/13 07:19:04;;;;;;;;;9.60;9.00;;;;;7.38;46.18;99786.66;5100892;28;8852;-66
2022/03/13 07:21:32;;;;;;;;;4.40;4.40;;;;;7.51;45.29;99792.78;5118018;28;8974;-65
2022/03/13 07:24:00;;;;;;;;;4.40;4.40;;;;;7.68;44.94;99796.78;5118808;28;8836;-65
2022/03/13 07:26:28;;;;;;;;;10.00;8.20;;;;;7.85;44.58;99783.19;5118624;28;8847;-65
2022/03/13 07:28:55;;;;;;;;;9.20;8.80;;;;;8.08;44.59;99793.03;5118584;28;8901;-66
2022/03/13 07:31:23;;;;;;;;;8.40;7.20;;;;;8.26;44.62;99782.91;5118200;28;8852;-68
2022/03/13 07:33:51;;;;;;;;;11.20;9.80;;;;;8.46;44.48;99801.75;5118769;28;8850;-65
2022/03/13 07:36:19;;;;;;;;;9.40;8.20;;;;;8.65;43.76;99795.94;5118359;28;8812;-65
2022/03/13 07:38:46;;;;;;;;;9.60;9.20;;;;;8.86;43.37;99797.81;5118562;28;8909;-66
2022/03/13 07:41:14;;;;;;;;;9.00;8.60;;;;;9.09;43.43;99790.75;5101392;28;8826;-65
2022/03/13 07:43:42;;;;;;;;;9.40;9.00;;;;;9.36;42.88;99796.63;5098123;28;8936;-65
2022/03/13 07:46:11;;;;;;;;;11.80;9.60;;;;;9.69;42.42;99786.88;5097902;28;8935;-65
2022/03/13 07:48:38;;;;;;;;;11.00;9.60;;;;;10.06;42.03;99791.00;5097812;28;8848;-66
2022/03/13 07:51:07;;;;;;;;;11.60;10.00;;;;;10.46;42.29;99778.84;5097095;28;8846;-66
2022/03/13 07:53:35;;;;;;;;;13.00;11.20;;;;;10.86;41.92;99771.91;5097666;28;8857;-65
2022/03/13 07:56:03;;;;;;;;;8.40;7.40;;;;;11.15;41.34;99785.47;5096895;28;8838;-65
2022/03/13 07:58:32;;;;;;;;;9.00;9.00;;;;;11.23;41.15;99781.16;5097219;28;8826;-65
2022/03/13 08:01:00;;;;;;;;;9.00;9.00;;;;;11.31;41.24;99784.00;5096615;28;8840;-65
2022/03/13 08:03:34;;;;;;;;;11.50;9.00;;;;;11.41;41.37;99782.28;5097726;28;8900;-66
2022/03/13 08:06:04;;;;;;;;;9.25;8.50;;;;;11.54;40.82;99782.06;5097347;28;8898;-67
2022/03/13 08:08:31;;;;;;;;;8.00;8.00;;;;;11.68;40.74;99792.41;5097398;28;8844;-65
2022/03/13 08:10:59;;;;;;;;;10.00;9.25;;;;;11.81;40.93;99782.34;5110910;28;8848;-65
2022/03/13 08:13:27;;;;;;;;;4.50;4.50;;;;;11.93;40.32;99784.81;5117625;28;8832;-65
2022/03/13 08:15:59;;;;;;;;;12.75;10.50;;;;;12.09;40.59;99780.63;5117887;28;8840;-65
2022/03/13 08:18:29;;;;;;;;;9.75;9.75;;;;;12.27;39.85;99786.19;5116526;28;8886;-66
2022/03/13 08:20:57;;;;;;;;;10.25;9.25;;;;;12.43;40.05;99791.84;5116971;28;8848;-69
2022/03/13 08:23:25;;;;;;;;;7.00;7.00;;;;;12.53;40.24;99792.72;5117070;28;8831;-65
2022/03/13 08:25:52;;;;;;;;;11.50;10.00;;;;;12.62;39.48;99786.53;5116420;28;8804;-65
2022/03/13 08:28:20;;;;;;;;;12.00;11.50;;;;;12.68;39.54;99783.31;5116801;28;9651;-65
2022/03/13 08:30:48;;;;;;;;;11.50;10.25;;;;;12.77;39.21;99774.47;5116234;28;8850;-65
2022/03/13 08:33:16;;;;;;;;;11.00;10.50;;;;;12.85;38.88;99774.59;5117058;28;8909;-65
2022/03/13 08:35:43;;;;;;;;;6.50;6.00;;;;;12.84;38.51;99771.06;5117612;28;8862;-65
2022/03/13 08:38:12;;;;;;;;;6.25;5.50;;;;;12.83;38.74;99779.25;5117143;28;8839;-64
2022/03/13 08:40:39;;;;;;;;;12.50;12.00;;;;;12.92;38.48;99773.06;5105825;28;8834;-65
2022/03/13 08:43:07;;;;;;;;;7.00;7.00;;;;;12.97;38.05;99779.69;5096774;28;9698;-64
2022/03/13 08:45:34;;;;;;;;;9.75;9.75;;;;;13.03;37.52;99770.25;5096659;28;8842;-64
2022/03/13 08:48:04;;;;;;;;;7.00;6.50;;;;;13.21;37.29;99757.88;5096108;28;8838;-64
2022/03/13 08:50:32;;;;;;;;;9.00;8.00;;;;;13.45;36.88;99768.94;5096406;28;8858;-65
2022/03/13 08:53:01;;;;;;;;;10.50;9.50;;;;;13.74;37.28;99759.84;5095875;28;8830;-64
2022/03/13 08:55:29;;;;;;;;;11.00;9.00;;;;;14.03;36.50;99757.06;5094958;28;8899;-65
2022/03/13 08:57:57;;;;;;;;;13.75;13.50;;;;;14.24;36.32;99753.16;5095554;28;8826;-65
2022/03/13 09:00:26;;;;;;;;;13.25;12.50;;;;;14.44;35.76;99753.88;5095021;28;8853;-65
2022/03/13 09:02:54;;;;;;;;;13.00;12.50;;;;;14.56;35.61;99758.88;5095115;28;9852;-67
2022/03/13 09:05:21;;;;;;;;;9.50;9.50;;;;;14.65;35.63;99760.63;5094784;28;8844;-65
2022/03/13 09:07:49;;;;;;;;;10.50;10.00;;;;;14.64;35.94;99758.94;5095167;28;8845;-65
2022/03/13 09:10:17;;;;;;;;;15.25;13.50;;;;;14.73;35.18;99752.66;5101690;28;8865;-65
2022/03/13 09:12:45;;;;;;;;;10.00;9.75;;;;;14.79;35.16;99753.94;5115134;28;8955;-65
2022/03/13 09:15:13;;;;;;;;;18.50;16.00;;;;;14.86;34.83;99749.63;5115038;28;8846;-65
2022/03/13 09:17:41;;;;;;;;;13.00;12.00;;;;;14.88;35.13;99753.00;5114926;28;8849;-65
2022/03/13 09:20:09;;;;;;;;;13.00;12.00;;;;;14.73;35.27;99754.53;5115075;28;8864;-66
2022/03/13 09:22:36;;;;;;;;;9.50;7.00;;;;;14.57;35.21;99765.09;5116453;28;8840;-66
2022/03/13 09:25:04;;;;;;;;;12.75;10.00;;;;;14.47;35.31;99762.47;5116332;28;8824;-65
2022/03/13 09:27:34;;;;;;;;;11.00;10.25;;;;;14.48;35.64;99750.75;5115270;28;8839;-65
2022/03/13 09:30:01;;;;;;;;;12.00;11.00;;;;;14.59;35.30;99758.59;5115724;28;8862;-65
2022/03/13 09:32:29;;;;;;;;;9.50;9.50;;;;;14.63;35.06;99756.44;5115771;28;8844;-66
2022/03/13 09:34:57;;;;;;;;;15.25;14.00;;;;;14.56;35.45;99760.72;5115595;28;8824;-66
2022/03/13 09:37:26;;;;;;;;;16.50;16.00;;;;;14.42;35.52;99769.28;5115929;28;8889;-66
2022/03/13 09:40:12;;;;;;;;;18.00;16.75;;;;;14.30;35.40;99759.75;5106804;28;8798;-66
2022/03/13 09:42:40;;;;;;;;;8.50;6.50;;;;;14.33;35.54;99754.94;5095627;28;8978;-66
2022/03/13 09:45:07;;;;;;;;;13.67;12.33;;;;;14.44;35.25;99768.13;5095184;28;9644;-66
2022/03/13 09:47:35;;;;;;;;;11.25;11.00;;;;;14.49;35.10;99755.09;5095092;28;8855;-66
2022/03/13 09:50:03;;;;;;;;;16.50;14.00;;;;;14.55;34.97;99759.88;5094856;28;9500;-65
2022/03/13 09:52:33;;;;;;;;;14.50;12.50;;;;;14.67;34.89;99765.84;5094643;28;8833;-66
2022/03/13 09:55:01;;;;;;;;;14.50;13.25;;;;;14.78;35.08;99766.47;5095160;28;8834;-66
2022/03/13 09:57:29;;;;;;;;;16.00;16.00;;;;;14.76;34.79;99756.88;5094810;28;8841;-67
2022/03/13 09:59:56;;;;;;;;;18.50;15.25;;;;;14.68;34.99;99764.84;5094861;28;8854;-65
2022/03/13 10:02:24;;;;;;;;;14.25;14.00;;;;;14.73;35.14;99763.41;5095096;28;8841;-64
2022/03/13 10:04:52;;;;;;;;;17.50;15.75;;;;;14.85;35.03;99762.19;5095064;28;8926;-67
2022/03/13 10:07:20;;;;;;;;;17.25;15.50;;;;;15.07;34.39;99756.34;5094808;28;9519;-65
2022/03/13 10:09:48;;;;;;;;;16.00;15.00;;;;;15.32;34.53;99754.75;5099758;28;8820;-64
2022/03/13 10:12:16;;;;;;;;;10.50;9.25;;;;;15.46;33.93;99752.31;5106169;28;8852;-65
2022/03/13 10:14:44;;;;;;;;;18.25;15.75;;;;;15.91;33.24;99752.09;5094385;28;8833;-64
2022/03/13 10:17:12;;;;;;;;;15.75;15.75;;;;;16.49;32.42;99748.50;5094392;28;8906;-64
2022/03/13 10:19:40;;;;;;;;;15.50;15.00;;;;;17.12;32.18;99742.34;5094583;28;8980;-64
2022/03/13 10:22:08;;;;;;;;;15.75;13.75;;;;;17.87;31.54;99739.25;5074029;28;8839;-66
2022/03/13 10:24:35;;;;;;;;;22.50;18.00;;;;;18.51;30.03;99738.16;5073664;28;8852;-65
2022/03/13 10:27:03;;;;;;;;;19.25;16.50;;;;;19.10;29.96;99742.78;5073837;28;8861;-66
2022/03/13 10:29:30;;;;;;;;;12.25;7.50;;;;;19.71;29.57;99740.75;5073954;28;8852;-65
2022/03/13 10:31:58;;;;;;;;;18.25;15.50;;;;;20.11;28.47;99742.19;5072934;28;8847;-66
2022/03/13 10:34:26;;;;;;;;;25.25;23.75;;;;;20.49;28.56;99741.84;5073909;28;8836;-65
2022/03/13 10:36:54;;;;;;;;;18.25;18.00;;;;;20.92;28.20;99739.06;5073953;28;8840;-65
2022/03/13 10:39:21;;;;;;;;;19.00;17.00;;;;;21.44;27.86;99733.28;5072672;28;8836;-65
2022/03/13 10:41:50;;;;;;;;;16.00;12.60;;;;;21.86;27.48;99739.44;5054310;28;8838;-66
2022/03/13 10:44:20;;;;;;;;;15.40;14.80;;;;;22.28;27.71;99733.00;5052793;28;8852;-66
2022/03/13 10:46:48;;;;;;;;;14.80;14.00;;;;;22.45;27.02;99728.94;5053163;28;8872;-66
2022/03/13 10:49:16;;;;;;;;;16.60;16.20;;;;;22.42;26.90;99721.22;5054221;28;8893;-65
2022/03/13 10:51:46;;;;;;;;;14.00;14.00;;;;;22.51;27.41;99728.13;5053573;28;8973;-65
2022/03/13 10:54:14;;;;;;;;;21.40;20.20;;;;;;;;5054091;28;9524;-66
2022/03/13 10:56:43;;;;;;;;;18.20;15.60;;;;;22.68;26.60;99724.84;5054211;28;8842;-68
2022/03/13 10:59:11;;;;;;;;;21.40;20.00;;;;;22.82;26.71;99732.00;5053673;28;8857;-65
2022/03/13 11:01:38;;;;;;;;;14.60;14.00;;;;;22.95;26.75;99723.03;5053750;28;8842;-64
2022/03/13 11:04:06;;;;;;;;;21.00;19.40;;;;;23.08;26.04;99731.22;5053663;28;9499;-65
2022/03/13 11:06:35;;;;;;;;;20.00;17.80;;;;;23.17;26.56;99730.84;5053154;28;9534;-65
2022/03/13 11:09:03;;;;;;;;;9.20;8.40;;;;;23.38;26.35;99727.91;5053779;28;8834;-65
2022/03/13 11:11:34;;;;;;;;;21.80;19.00;;;;;23.58;26.57;99719.78;5071982;28;8828;-65
2022/03/13 11:14:02;;;;;;;;;16.60;15.80;;;;;23.77;25.84;99733.34;5072747;28;8862;-64
2022/03/13 11:16:30;;;;;;;;;21.00;19.60;;;;;24.08;26.35;99724.53;5074120;28;9515;-65
2022/03/13 11:18:58;;;;;;;;;19.80;16.00;;;;;24.39;25.48;99720.03;5074702;28;9590;-65
2022/03/13 11:21:27;;;;;;;;;20.20;18.00;;;;;24.57;25.93;99722.06;5083520;28;8858;-70
2022/03/13 11:23:54;;;;;;;;;9.00;8.40;;;;;24.39;25.88;99719.16;5094730;28;9531;-65
2022/03/13 11:26:23;;;;;;;;;19.80;17.00;;;;;24.34;25.99;99713.56;5094194;28;8965;-64
2022/03/13 11:28:53;;;;;;;;;16.00;14.00;;;;;24.44;25.81;99714.75;5093538;28;9393;-65
2022/03/13 11:31:20;;;;;;;;;15.60;15.20;;;;;24.55;25.69;99705.94;5093590;28;8845;-64
2022/03/13 11:33:48;;;;;;;;;20.40;17.20;;;;;24.57;25.85;99709.28;5093345;28;8830;-65
2022/03/13 11:36:16;;;;;;;;;17.00;16.00;;;;;24.68;25.75;99699.59;5095880;28;8872;-64
2022/03/13 11:38:44;;;;;;;;;20.20;17.40;;;;;25.00;25.64;99696.66;5096883;28;8818;-64
2022/03/13 11:41:13;;;;;;;;;20.60;17.20;;;;;25.22;25.34;99697.13;5112582;28;9820;-64
2022/03/13 11:43:44;;;;;;;;;17.80;16.20;;;;;25.57;24.97;99685.53;5116601;28;8937;-64
2022/03/13 11:46:12;;;;;;;;;14.60;14.00;;;;;25.95;24.62;99692.50;5114812;28;8951;-67